createdAt,value
2024-02-29T00:01:13.807Z,37.07
2024-02-29T00:03:46.260Z,36.17
2024-02-29T00:06:18.261Z,37.05
2024-02-29T00:08:50.647Z,38.15
2024-02-29T00:11:22.723Z,38.50
2024-02-29T00:13:55.146Z,38.00
2024-02-29T00:16:27.120Z,33.72
2024-02-29T00:18:59.492Z,38.58
2024-02-29T00:21:31.699Z,38.38
2024-02-29T00:24:04.129Z,35.03
2024-02-29T00:26:36.096Z,36.33
2024-02-29T00:29:09.414Z,36.25
2024-02-29T00:31:45.479Z,37.05
2024-02-29T00:34:18.026Z,37.58
2024-02-29T00:36:50.061Z,37.45
2024-02-29T00:39:22.637Z,37.80
2024-02-29T00:41:54.601Z,41.83
2024-02-29T00:44:27.059Z,38.75
2024-02-29T00:47:00.020Z,37.92
2024-02-29T00:49:33.249Z,41.53
2024-02-29T00:52:05.385Z,38.40
2024-02-29T00:54:37.875Z,38.33
2024-02-29T00:57:09.873Z,39.30
2024-02-29T00:59:42.746Z,37.25
2024-02-29T01:02:14.765Z,40.28
2024-02-29T01:04:47.333Z,37.20
2024-02-29T01:07:21.150Z,35.72
2024-02-29T01:09:54.280Z,34.95
2024-02-29T01:12:27.231Z,35.00
2024-02-29T01:14:59.606Z,32.80
2024-02-29T01:17:31.599Z,27.63
2024-02-29T01:20:06.656Z,35.90
2024-02-29T01:22:39.009Z,31.90
2024-02-29T01:25:13.057Z,29.23
2024-02-29T01:27:45.124Z,30.80
2024-02-29T01:30:17.812Z,29.20
2024-02-29T01:32:49.828Z,28.50
2024-02-29T01:35:22.308Z,32.42
2024-02-29T01:37:54.292Z,31.63
2024-02-29T01:40:26.748Z,31.63
2024-02-29T01:42:58.869Z,32.00
2024-02-29T01:45:31.321Z,32.85
2024-02-29T01:48:04.084Z,32.22
2024-02-29T01:50:37.508Z,31.00
2024-02-29T01:53:09.570Z,28.95
2024-02-29T01:55:41.924Z,31.53
2024-02-29T01:58:14.472Z,30.58
2024-02-29T02:00:47.027Z,29.88
2024-02-29T02:03:20.160Z,32.97
2024-02-29T02:05:52.534Z,28.70
2024-02-29T02:08:27.938Z,30.80
2024-02-29T02:11:01.211Z,35.75
2024-02-29T02:13:33.300Z,32.67
2024-02-29T02:16:06.640Z,30.63
2024-02-29T02:18:39.089Z,33.35
2024-02-29T02:21:11.517Z,33.37
2024-02-29T02:23:43.933Z,29.58
2024-02-29T02:26:16.370Z,28.67
2024-02-29T02:28:48.353Z,32.95
2024-02-29T02:31:20.752Z,29.52
2024-02-29T02:33:52.720Z,31.33
2024-02-29T02:36:25.846Z,29.65
2024-02-29T02:38:57.800Z,35.10
2024-02-29T02:41:30.559Z,31.33
2024-02-29T02:44:02.582Z,31.45
2024-02-29T02:46:34.927Z,32.20
2024-02-29T02:49:07.532Z,32.42
2024-02-29T02:51:40.362Z,30.00
2024-02-29T02:54:12.797Z,31.00
2024-02-29T02:56:45.137Z,30.88
2024-02-29T02:59:18.590Z,31.43
2024-02-29T03:01:51.019Z,30.85
2024-02-29T03:04:22.958Z,29.55
2024-02-29T03:06:55.371Z,28.17
2024-02-29T03:09:27.413Z,28.70
2024-02-29T03:11:59.752Z,28.30
2024-02-29T03:14:31.732Z,29.88
2024-02-29T03:17:04.937Z,26.92
2024-02-29T03:19:37.063Z,27.55
2024-02-29T03:22:09.737Z,28.35
2024-02-29T03:24:44.383Z,30.63
2024-02-29T03:27:17.327Z,29.38
2024-02-29T03:29:49.289Z,34.17
2024-02-29T03:32:21.828Z,27.63
2024-02-29T03:34:53.800Z,27.88
2024-02-29T03:37:26.333Z,29.23
2024-02-29T03:39:58.311Z,37.80
2024-02-29T03:42:31.270Z,32.75
2024-02-29T03:45:03.858Z,27.83
2024-02-29T03:47:37.602Z,29.10
2024-02-29T03:50:13.273Z,28.67
2024-02-29T03:52:45.491Z,25.50
2024-02-29T03:55:17.625Z,28.02
2024-02-29T03:57:50.189Z,26.92
2024-02-29T04:00:22.308Z,25.77
2024-02-29T04:02:54.769Z,26.80
2024-02-29T04:05:27.165Z,24.30
2024-02-29T04:08:05.230Z,27.77
2024-02-29T04:10:37.398Z,25.30
2024-02-29T04:13:10.009Z,25.90
2024-02-29T04:15:42.380Z,25.53
2024-02-29T04:18:14.887Z,25.52
2024-02-29T04:20:47.007Z,24.50
2024-02-29T04:23:19.473Z,24.55
2024-02-29T04:25:51.420Z,23.50
2024-02-29T04:28:23.934Z,22.40
2024-02-29T04:30:55.991Z,24.98
2024-02-29T04:33:28.466Z,25.85
2024-02-29T04:36:00.881Z,24.25
2024-02-29T04:38:33.399Z,22.58
2024-02-29T04:41:05.410Z,19.77
2024-02-29T04:43:38.684Z,19.42
2024-02-29T04:46:10.746Z,21.60
2024-02-29T04:48:43.298Z,21.73
2024-02-29T04:51:15.228Z,24.50
2024-02-29T04:53:48.805Z,18.70
2024-02-29T04:56:20.823Z,22.63
2024-02-29T04:58:53.287Z,22.30
2024-02-29T05:01:25.285Z,23.60
2024-02-29T05:03:57.854Z,22.65
2024-02-29T05:06:30.298Z,21.80
2024-02-29T05:09:02.789Z,19.17
2024-02-29T05:11:37.282Z,29.13
2024-02-29T05:14:11.355Z,23.75
2024-02-29T05:16:43.265Z,23.98
2024-02-29T05:19:16.142Z,22.70
2024-02-29T05:21:48.490Z,25.80
2024-02-29T05:24:21.417Z,26.13
2024-02-29T05:26:53.356Z,22.92
2024-02-29T05:29:25.946Z,26.73
2024-02-29T05:31:58.708Z,21.47
2024-02-29T05:34:31.359Z,20.35
2024-02-29T05:37:03.473Z,22.85
2024-02-29T05:39:36.472Z,23.13
2024-02-29T05:42:08.530Z,20.45
2024-02-29T05:44:41.100Z,21.03
2024-02-29T05:47:13.424Z,22.65
2024-02-29T05:49:46.246Z,25.40
2024-02-29T05:52:20.869Z,21.25
2024-02-29T05:54:53.458Z,25.40
2024-02-29T05:57:31.670Z,20.30
2024-02-29T06:00:07.464Z,23.88
2024-02-29T06:02:46.993Z,23.45
2024-02-29T06:05:21.344Z,23.58
2024-02-29T06:07:53.409Z,23.10
2024-02-29T06:10:25.694Z,26.20
2024-02-29T06:12:58.164Z,24.30
2024-02-29T06:15:30.623Z,24.83
2024-02-29T06:18:02.871Z,26.48
2024-02-29T06:20:35.437Z,21.38
2024-02-29T06:23:07.517Z,27.73
2024-02-29T06:25:40.098Z,23.65
2024-02-29T06:28:12.137Z,22.67
2024-02-29T06:30:45.200Z,27.25
2024-02-29T06:33:17.201Z,26.65
2024-02-29T06:35:51.014Z,23.27
2024-02-29T06:38:23.408Z,21.38
2024-02-29T06:40:56.276Z,22.42
2024-02-29T06:43:30.654Z,20.35
2024-02-29T06:46:06.924Z,19.77
2024-02-29T06:48:40.248Z,20.47
2024-02-29T06:51:12.829Z,21.65
2024-02-29T06:53:44.809Z,21.88
2024-02-29T06:56:17.543Z,22.45
2024-02-29T06:58:50.175Z,20.85
2024-02-29T07:01:24.395Z,22.50
2024-02-29T07:03:57.683Z,20.20
2024-02-29T07:06:30.240Z,22.15
2024-02-29T07:09:02.516Z,22.45
2024-02-29T07:11:35.157Z,22.05
2024-02-29T07:14:07.397Z,21.50
2024-02-29T07:16:40.036Z,24.15
2024-02-29T07:19:12.175Z,26.52
2024-02-29T07:21:45.112Z,24.92
2024-02-29T07:24:17.123Z,21.52
2024-02-29T07:26:56.111Z,24.37
2024-02-29T07:29:28.510Z,21.77
2024-02-29T07:32:01.026Z,23.48
2024-02-29T07:34:35.269Z,20.08
2024-02-29T07:37:08.003Z,23.52
2024-02-29T07:39:40.015Z,22.77
2024-02-29T07:42:12.533Z,23.83
2024-02-29T07:44:44.543Z,23.92
2024-02-29T07:47:17.145Z,21.08
2024-02-29T07:49:49.164Z,24.50
2024-02-29T07:52:22.163Z,22.27
2024-02-29T07:54:54.695Z,26.08
2024-02-29T07:57:27.634Z,29.00
2024-02-29T07:59:59.879Z,28.83
2024-02-29T08:02:35.508Z,27.30
2024-02-29T08:05:08.033Z,29.23
2024-02-29T08:07:41.344Z,29.63
2024-02-29T08:10:17.025Z,28.38
2024-02-29T08:12:49.819Z,28.38
2024-02-29T08:15:21.990Z,27.92
2024-02-29T08:17:54.616Z,28.53
2024-02-29T08:20:27.148Z,27.45
2024-02-29T08:22:59.672Z,28.15
2024-02-29T08:25:31.944Z,31.15
2024-02-29T08:28:06.896Z,29.00
2024-02-29T08:30:39.335Z,26.93
2024-02-29T08:33:12.092Z,27.90
2024-02-29T08:35:44.139Z,28.73
2024-02-29T08:38:17.771Z,27.95
2024-02-29T08:40:50.353Z,28.83
2024-02-29T08:43:23.103Z,30.23
2024-02-29T08:45:55.123Z,25.42
2024-02-29T08:48:28.514Z,25.67
2024-02-29T08:51:00.475Z,26.38
2024-02-29T08:53:33.913Z,26.48
2024-02-29T08:56:05.997Z,27.73
2024-02-29T08:58:38.893Z,25.92
2024-02-29T09:01:11.221Z,29.85
2024-02-29T09:03:44.596Z,27.30
2024-02-29T09:06:17.566Z,24.40
2024-02-29T09:08:50.124Z,32.27
2024-02-29T09:11:22.533Z,27.85
2024-02-29T09:13:58.000Z,24.40
2024-02-29T09:16:30.860Z,22.75
2024-02-29T09:19:06.134Z,22.45
2024-02-29T09:21:38.260Z,22.53
2024-02-29T09:24:16.053Z,23.25
2024-02-29T09:26:48.546Z,22.67
2024-02-29T09:29:22.888Z,20.95
2024-02-29T09:31:56.212Z,22.30
2024-02-29T09:34:29.891Z,26.63
2024-02-29T09:37:02.686Z,23.77
2024-02-29T09:39:35.681Z,21.05
2024-02-29T09:42:13.931Z,22.90
2024-02-29T09:44:48.569Z,24.55
2024-02-29T09:47:22.103Z,22.17
2024-02-29T09:49:59.579Z,22.35
2024-02-29T09:52:39.659Z,23.40
2024-02-29T09:55:15.401Z,24.02
2024-02-29T09:57:47.692Z,24.10
2024-02-29T10:00:21.911Z,23.93
2024-02-29T10:02:56.057Z,23.73
2024-02-29T10:05:28.773Z,30.48
2024-02-29T10:08:03.294Z,31.60
2024-02-29T10:10:38.528Z,27.88
2024-02-29T10:13:10.766Z,29.80
2024-02-29T10:15:45.683Z,26.27
2024-02-29T10:18:17.826Z,27.40
2024-02-29T10:20:50.526Z,24.40
2024-02-29T10:23:22.681Z,25.13
2024-02-29T10:25:55.334Z,27.63
2024-02-29T10:28:28.754Z,25.58
2024-02-29T10:31:02.642Z,27.35
2024-02-29T10:33:39.905Z,22.02
2024-02-29T10:36:13.041Z,26.80
2024-02-29T10:38:45.172Z,24.93
2024-02-29T10:41:19.734Z,26.23
2024-02-29T10:43:52.762Z,25.95
2024-02-29T10:46:26.264Z,22.00
2024-02-29T10:49:08.284Z,27.25
2024-02-29T10:51:50.036Z,23.87
2024-02-29T10:54:33.843Z,24.95
2024-02-29T10:57:16.727Z,25.45
2024-02-29T10:59:55.237Z,25.70
2024-02-29T11:02:30.534Z,23.80
2024-02-29T11:05:04.407Z,22.37
2024-02-29T11:07:37.665Z,27.15
2024-02-29T11:10:10.574Z,22.67
2024-02-29T11:12:45.807Z,28.25
2024-02-29T11:15:27.065Z,26.85
2024-02-29T11:18:00.785Z,24.23
2024-02-29T11:20:35.010Z,25.38
2024-02-29T11:23:11.305Z,23.33
2024-02-29T11:25:44.386Z,26.17
2024-02-29T11:28:38.077Z,28.95
2024-02-29T11:31:48.046Z,24.90
2024-02-29T11:34:30.036Z,24.75
2024-02-29T11:37:07.265Z,28.90
2024-02-29T11:39:40.197Z,27.38
2024-02-29T11:42:15.412Z,31.08
2024-02-29T11:45:35.642Z,26.83
2024-02-29T11:48:34.290Z,25.30
2024-02-29T11:51:08.941Z,29.65
2024-02-29T11:53:41.797Z,25.13
2024-02-29T11:56:16.595Z,30.63
2024-02-29T11:58:51.139Z,26.03
2024-02-29T12:01:25.020Z,26.60
2024-02-29T12:03:57.768Z,26.65
2024-02-29T12:07:45.694Z,24.80
2024-02-29T12:10:15.335Z,29.83
2024-02-29T12:12:48.694Z,27.00
2024-02-29T12:15:21.410Z,26.25
2024-02-29T12:17:54.033Z,25.30
2024-02-29T12:20:26.901Z,23.27
2024-02-29T12:23:00.213Z,21.58
2024-02-29T12:25:32.554Z,25.17
2024-02-29T12:28:09.129Z,26.92
2024-02-29T12:30:50.031Z,23.42
2024-02-29T12:33:27.311Z,23.17
2024-02-29T12:36:01.931Z,25.20
2024-02-29T12:38:36.274Z,41.07
2024-02-29T12:41:08.702Z,26.88
2024-02-29T12:43:50.386Z,21.30
2024-02-29T12:46:28.760Z,20.73
2024-02-29T12:49:05.223Z,22.05
2024-02-29T12:51:37.823Z,20.70
2024-02-29T12:54:11.900Z,23.23
2024-02-29T12:56:47.763Z,22.85
2024-02-29T12:59:22.937Z,23.45
2024-02-29T13:02:01.644Z,21.30
2024-02-29T13:15:11.604Z,25.23
2024-02-29T13:17:44.539Z,18.73
2024-02-29T13:29:23.599Z,25.27
2024-02-29T13:32:00.560Z,23.45
2024-02-29T13:34:34.517Z,28.42
2024-02-29T13:37:09.456Z,27.00
2024-02-29T13:39:47.842Z,25.20
2024-02-29T13:42:33.542Z,23.45
2024-02-29T13:45:16.255Z,26.85
2024-02-29T13:47:59.426Z,26.05
2024-02-29T13:50:35.730Z,28.55
2024-02-29T13:53:24.557Z,26.93
2024-02-29T13:55:59.740Z,28.15
2024-02-29T13:58:35.219Z,26.38
2024-02-29T14:01:15.115Z,30.27
2024-02-29T14:03:49.902Z,29.73
2024-02-29T14:06:23.315Z,25.83
2024-02-29T14:09:01.493Z,28.65
2024-02-29T14:16:13.178Z,27.77
2024-02-29T14:19:39.133Z,26.58
2024-02-29T14:22:22.422Z,24.83
2024-02-29T14:24:59.965Z,25.30
2024-02-29T14:27:35.710Z,28.60
2024-02-29T14:30:11.416Z,26.52
2024-02-29T14:32:46.864Z,27.80
2024-02-29T14:35:19.955Z,24.47
2024-02-29T14:38:07.440Z,25.88
2024-02-29T14:41:36.617Z,27.90
2024-02-29T14:44:09.248Z,24.90
2024-02-29T14:46:51.856Z,25.25
2024-02-29T14:49:52.124Z,27.77
2024-02-29T14:55:47.372Z,24.92
2024-02-29T14:59:47.068Z,24.02
2024-02-29T15:03:25.947Z,29.98
2024-02-29T15:06:31.076Z,27.30
2024-02-29T15:09:06.825Z,24.60
2024-02-29T15:11:46.693Z,23.70
2024-02-29T15:20:07.460Z,26.50
2024-02-29T15:22:41.626Z,25.63
2024-02-29T15:25:17.430Z,27.10
2024-02-29T15:27:55.152Z,29.25
2024-02-29T15:30:28.614Z,26.73
2024-02-29T15:33:05.091Z,25.07
2024-02-29T15:35:38.372Z,26.67
2024-02-29T15:38:10.984Z,28.98
2024-02-29T15:40:47.852Z,23.80
2024-02-29T15:43:21.677Z,26.98
2024-02-29T15:45:54.723Z,26.37
2024-02-29T15:48:27.611Z,26.73
2024-02-29T15:51:01.046Z,36.80
2024-02-29T15:53:33.309Z,27.05
2024-02-29T15:56:07.449Z,27.08
2024-02-29T15:58:39.656Z,25.77
2024-02-29T16:01:12.454Z,27.20
2024-02-29T16:03:44.707Z,26.58
2024-02-29T16:06:20.912Z,26.73
2024-02-29T16:09:04.124Z,25.83
2024-02-29T16:11:36.933Z,30.03
2024-02-29T16:14:09.553Z,28.30
2024-02-29T16:19:30.692Z,32.58
2024-02-29T16:22:03.705Z,36.53
2024-02-29T16:27:25.660Z,34.22
2024-02-29T16:32:50.660Z,31.65
2024-02-29T16:35:23.865Z,29.33
2024-02-29T16:37:59.516Z,28.97
2024-02-29T16:40:40.182Z,27.75
2024-02-29T16:43:15.970Z,27.63
2024-02-29T16:45:49.785Z,27.88
2024-02-29T16:48:23.357Z,31.08
2024-02-29T16:50:57.576Z,28.67
2024-02-29T16:53:30.234Z,33.33
2024-02-29T16:56:03.046Z,32.42
2024-02-29T17:01:24.394Z,34.08
2024-02-29T17:04:01.618Z,31.83
2024-02-29T17:06:35.671Z,36.65
2024-02-29T17:09:09.793Z,32.92
2024-02-29T17:11:47.566Z,35.28
2024-02-29T17:14:23.436Z,35.28
2024-02-29T17:16:55.791Z,35.00
2024-02-29T17:19:29.395Z,38.00
2024-02-29T17:22:02.293Z,33.65
2024-02-29T17:24:39.050Z,31.35
2024-02-29T17:27:11.272Z,34.30
2024-02-29T17:29:44.933Z,28.60
2024-02-29T17:32:22.103Z,35.47
2024-02-29T17:34:55.585Z,31.73
2024-02-29T17:37:30.369Z,35.08
2024-02-29T17:40:03.858Z,33.63
2024-02-29T17:42:36.313Z,30.67
2024-02-29T17:45:11.083Z,27.58
2024-02-29T17:47:43.660Z,32.28
2024-02-29T17:50:21.000Z,28.58
2024-02-29T17:52:56.595Z,31.30
2024-02-29T17:55:30.097Z,28.73
2024-02-29T17:58:03.085Z,30.13
2024-02-29T18:00:37.655Z,31.30
2024-02-29T18:03:20.028Z,27.50
2024-02-29T18:06:18.588Z,25.85
2024-02-29T18:08:51.034Z,29.23
2024-02-29T18:11:27.031Z,24.67
2024-02-29T18:14:00.725Z,26.98
2024-02-29T18:16:34.709Z,27.77
2024-02-29T18:19:07.586Z,25.95
2024-02-29T18:21:46.539Z,27.80
2024-02-29T18:24:19.363Z,24.90
2024-02-29T18:26:51.558Z,24.83
2024-02-29T18:29:26.518Z,26.20
2024-02-29T18:31:58.909Z,29.27
2024-02-29T18:34:31.182Z,24.97
2024-02-29T18:37:04.371Z,30.50
2024-02-29T18:39:37.807Z,28.52
2024-02-29T18:42:10.390Z,26.38
2024-02-29T18:44:43.132Z,26.65
2024-02-29T18:47:19.676Z,22.57
2024-02-29T18:49:53.094Z,29.35
2024-02-29T18:52:33.482Z,30.55
2024-02-29T18:55:09.237Z,28.98
2024-02-29T18:57:41.913Z,28.38
2024-02-29T19:00:16.586Z,29.10
2024-02-29T19:02:49.504Z,26.05
2024-02-29T19:05:22.057Z,29.58
2024-02-29T19:07:54.569Z,28.17
2024-02-29T19:10:27.165Z,30.65
2024-02-29T19:12:59.212Z,31.30
2024-02-29T19:15:32.155Z,30.10
2024-02-29T19:18:04.656Z,29.58
2024-02-29T19:20:37.199Z,27.95
2024-02-29T19:23:10.692Z,25.42
2024-02-29T19:26:04.249Z,24.73
2024-02-29T19:28:39.029Z,23.95
2024-02-29T19:31:15.683Z,30.00
2024-02-29T19:33:48.482Z,30.35
2024-02-29T19:36:22.314Z,29.23
2024-02-29T19:38:57.736Z,25.57
2024-02-29T19:41:30.588Z,26.98
2024-02-29T19:44:02.816Z,27.17
2024-02-29T19:46:42.600Z,29.33
2024-02-29T19:49:14.724Z,27.48
2024-02-29T19:51:47.929Z,27.63
2024-02-29T19:54:20.031Z,25.60
2024-02-29T19:56:52.530Z,26.65
2024-02-29T19:59:24.514Z,24.30
2024-02-29T20:01:56.953Z,25.83
2024-02-29T20:04:30.789Z,24.43
2024-02-29T20:07:03.174Z,27.00
2024-02-29T20:09:35.648Z,26.23
2024-02-29T20:12:08.575Z,27.15
2024-02-29T20:14:42.550Z,26.70
2024-02-29T20:17:15.841Z,27.23
2024-02-29T20:19:48.359Z,32.67
2024-02-29T20:22:21.099Z,28.98
2024-02-29T20:24:54.617Z,32.40
2024-02-29T20:27:27.433Z,30.98
2024-02-29T20:29:59.481Z,30.73
2024-02-29T20:32:32.248Z,34.20
2024-02-29T20:35:04.871Z,30.42
2024-02-29T20:37:37.516Z,30.48
2024-02-29T20:40:10.310Z,33.17
2024-02-29T20:42:43.088Z,33.17
2024-02-29T20:45:17.561Z,34.42
2024-02-29T20:47:50.567Z,32.65
2024-02-29T20:50:23.498Z,31.38
2024-02-29T20:52:56.530Z,31.08
2024-02-29T20:55:35.931Z,29.50
2024-02-29T20:58:11.842Z,32.97
2024-02-29T21:00:44.367Z,27.50
2024-02-29T21:03:17.386Z,36.65
2024-02-29T21:05:49.520Z,30.63
2024-02-29T21:08:22.190Z,31.00
2024-02-29T21:10:54.254Z,31.87
2024-02-29T21:13:28.893Z,30.52
2024-02-29T21:16:01.709Z,31.90
2024-02-29T21:18:34.939Z,31.27
2024-02-29T21:21:06.942Z,36.10
2024-02-29T21:23:40.102Z,30.95
2024-02-29T21:26:12.114Z,34.80
2024-02-29T21:28:47.856Z,33.72
2024-02-29T21:31:20.134Z,36.10
2024-02-29T21:33:57.648Z,33.43
2024-02-29T21:36:30.152Z,32.15
2024-02-29T21:39:03.354Z,32.88
2024-02-29T21:41:36.766Z,33.65
2024-02-29T21:44:10.997Z,33.38
2024-02-29T21:46:43.470Z,34.10
2024-02-29T21:49:17.849Z,34.60
2024-02-29T21:51:50.078Z,34.78
2024-02-29T21:54:25.764Z,35.63
2024-02-29T21:56:58.223Z,32.42
2024-02-29T21:59:30.850Z,33.60
2024-02-29T22:02:03.545Z,36.05
2024-02-29T22:04:36.546Z,29.70
2024-02-29T22:07:08.629Z,31.30
2024-02-29T22:09:41.138Z,29.33
2024-02-29T22:12:13.175Z,30.93
2024-02-29T22:14:45.652Z,31.50
2024-02-29T22:17:17.606Z,29.42
2024-02-29T22:19:50.316Z,31.75
2024-02-29T22:22:22.778Z,32.25
2024-02-29T22:24:56.143Z,29.13
2024-02-29T22:27:28.574Z,30.88
2024-02-29T22:30:01.204Z,32.75
2024-02-29T22:32:33.848Z,29.73
2024-02-29T22:35:09.203Z,31.73
2024-02-29T22:37:41.322Z,35.97
2024-02-29T22:40:14.547Z,33.45
2024-02-29T22:42:46.727Z,32.28
2024-02-29T22:45:19.729Z,34.58
2024-02-29T22:47:51.779Z,31.00
2024-02-29T22:50:24.419Z,32.63
2024-02-29T22:52:56.387Z,34.35
2024-02-29T22:55:29.201Z,32.60
2024-02-29T22:58:01.552Z,34.90
2024-02-29T23:00:35.216Z,27.48
2024-02-29T23:03:08.041Z,30.53
2024-02-29T23:05:41.195Z,29.20
2024-02-29T23:08:13.180Z,27.70
2024-02-29T23:10:45.684Z,30.70
2024-02-29T23:13:17.856Z,28.92
2024-02-29T23:15:51.006Z,30.77
2024-02-29T23:18:23.048Z,29.52
2024-02-29T23:20:57.841Z,28.75
2024-02-29T23:23:29.842Z,32.42
2024-02-29T23:26:02.629Z,33.67
2024-02-29T23:28:34.697Z,26.07
2024-02-29T23:31:07.484Z,31.02
2024-02-29T23:33:39.606Z,33.35
2024-02-29T23:36:12.094Z,33.45
2024-02-29T23:38:44.026Z,29.63
2024-02-29T23:41:16.508Z,27.30
2024-02-29T23:43:48.528Z,29.95
2024-02-29T23:46:21.068Z,30.73
2024-02-29T23:48:53.094Z,28.52
2024-02-29T23:51:25.645Z,31.08
2024-02-29T23:53:57.600Z,30.63
2024-02-29T23:56:30.070Z,25.52
2024-02-29T23:59:02.069Z,24.67
